Time;durP1;ratioP1;P1;durP2;ratioP2;P2;SDS_P1;SDS_P2;PMS_P1;PMS_P2;Temp;Humidity;BMP_temperature;BMP_pressure;BME280_temperature;BME280_humidity;BME280_pressure;Samples;Min_cycle;Max_cycle;Signal;HPM_P1;HPM_P2
2022/08/31 00:04:55;;;;;;;2.33;0.90;;;15.60;99.90;;;;;;5139910;27;20482;-72
2022/08/31 00:07:21;;;;;;;2.78;0.95;;;15.50;99.90;;;;;;5125491;27;21033;-72
2022/08/31 00:09:46;;;;;;;1.92;0.90;;;15.50;99.90;;;;;;5136340;27;20126;-71
2022/08/31 00:12:12;;;;;;;2.83;1.00;;;15.40;99.90;;;;;;5144410;27;20051;-71
2022/08/31 00:14:38;;;;;;;1.98;0.90;;;15.30;99.90;;;;;;5122796;27;20103;-72
2022/08/31 00:17:04;;;;;;;1.98;0.90;;;15.30;99.90;;;;;;5139962;27;20418;-72
2022/08/31 00:19:30;;;;;;;2.15;0.70;;;15.30;99.90;;;;;;5139082;27;20046;-72
2022/08/31 00:21:56;;;;;;;1.50;0.80;;;15.20;99.90;;;;;;5143003;27;20035;-72
2022/08/31 00:24:22;;;;;;;2.58;0.90;;;15.20;99.90;;;;;;5141119;27;20035;-71
2022/08/31 00:26:48;;;;;;;3.40;0.88;;;15.20;99.90;;;;;;5125534;27;20051;-71
2022/08/31 00:29:14;;;;;;;1.30;0.75;;;15.10;99.90;;;;;;5122856;27;20049;-71
2022/08/31 00:31:40;;;;;;;2.60;0.90;;;15.10;99.90;;;;;;5144173;27;20045;-71
2022/08/31 00:34:05;;;;;;;1.67;0.90;;;15.10;99.90;;;;;;5134000;27;20035;-71
2022/08/31 00:36:31;;;;;;;2.17;1.02;;;15.00;99.90;;;;;;5144456;27;20482;-72
2022/08/31 00:38:57;;;;;;;2.58;0.90;;;15.00;99.90;;;;;;5120726;27;20043;-72
2022/08/31 00:41:27;;;;;;;1.83;0.73;;;15.00;99.90;;;;;;5142722;27;20115;-71
2022/08/31 00:43:59;;;;;;;2.85;1.10;;;14.90;99.90;;;;;;5124460;27;20045;-71
2022/08/31 00:46:29;;;;;;;1.77;0.80;;;14.80;99.90;;;;;;5123159;27;20094;-71
2022/08/31 00:49:08;;;;;;;3.08;1.10;;;14.80;99.90;;;;;;5140825;27;20094;-71
2022/08/31 00:51:59;;;;;;;2.30;0.90;;;14.80;99.90;;;;;;5118194;28;20049;-72
2022/08/31 00:54:36;;;;;;;1.98;0.88;;;14.80;99.90;;;;;;5124508;27;20058;-72
2022/08/31 00:57:04;;;;;;;3.10;1.20;;;14.70;99.90;;;;;;5136432;27;20038;-72
2022/08/31 00:59:29;;;;;;;2.42;0.80;;;14.70;99.90;;;;;;5125390;27;20098;-72
2022/08/31 01:01:55;;;;;;;1.35;0.65;;;14.60;99.90;;;;;;5122783;27;20051;-71
2022/08/31 01:04:21;;;;;;;2.53;0.90;;;14.60;99.90;;;;;;5120932;27;20477;-72
2022/08/31 01:06:48;;;;;;;2.53;1.10;;;14.60;99.90;;;;;;5123432;27;20039;-72
2022/08/31 01:09:14;;;;;;;2.38;0.90;;;14.60;99.90;;;;;;5123958;27;20475;-71
2022/08/31 01:11:41;;;;;;;4.22;0.90;;;14.40;99.90;;;;;;5143982;27;20042;-72
2022/08/31 01:14:07;;;;;;;1.45;0.90;;;14.40;99.90;;;;;;5140408;27;20547;-71
2022/08/31 01:16:47;;;;;;;3.58;0.90;;;14.40;99.90;;;;;;5126231;27;20054;-71
2022/08/31 01:19:26;;;;;;;4.43;1.05;;;14.30;99.90;;;;;;5123380;27;20047;-71
2022/08/31 01:22:06;;;;;;;1.77;0.90;;;14.50;99.90;;;;;;5122741;27;20045;-72
2022/08/31 01:24:33;;;;;;;3.22;1.00;;;14.20;99.90;;;;;;5122594;27;20039;-71
2022/08/31 01:27:06;;;;;;;1.63;0.95;;;14.10;99.90;;;;;;5139705;27;20043;-71
2022/08/31 01:29:33;;;;;;;1.75;0.95;;;15.00;99.90;;;;;;5123329;27;20065;-71
2022/08/31 01:31:59;;;;;;;2.20;1.00;;;14.10;99.90;;;;;;5129026;27;20126;-71
2022/08/31 01:34:25;;;;;;;2.13;1.00;;;14.00;99.90;;;;;;5143327;27;20035;-73
2022/08/31 01:36:51;;;;;;;1.98;0.98;;;14.10;99.90;;;;;;5128274;27;20054;-73
2022/08/31 01:39:18;;;;;;;2.15;0.90;;;14.00;99.90;;;;;;5127121;27;20050;-71
2022/08/31 01:41:46;;;;;;;2.20;1.10;;;13.90;99.90;;;;;;5126856;27;20068;-72
2022/08/31 01:44:15;;;;;;;2.10;0.98;;;13.80;99.90;;;;;;5127297;27;20077;-72
2022/08/31 01:46:42;;;;;;;2.83;0.98;;;13.80;99.90;;;;;;5128044;27;20394;-71
2022/08/31 01:49:08;;;;;;;2.03;1.00;;;13.80;99.90;;;;;;5127792;27;20047;-72
2022/08/31 01:51:34;;;;;;;1.83;0.85;;;13.80;99.90;;;;;;5127902;27;20513;-72
2022/08/31 01:54:00;;;;;;;2.10;0.90;;;13.70;99.90;;;;;;5125580;27;20074;-72
2022/08/31 01:56:33;;;;;;;1.85;0.90;;;13.70;99.90;;;;;;5128718;27;20030;-72
2022/08/31 01:58:59;;;;;;;2.65;1.08;;;13.80;99.90;;;;;;5125236;27;20110;-72
2022/08/31 02:01:30;;;;;;;1.55;0.80;;;13.60;99.90;;;;;;5128141;27;20034;-73
2022/08/31 02:03:55;;;;;;;2.95;1.00;;;13.50;99.90;;;;;;5118551;27;20043;-72
2022/08/31 02:06:21;;;;;;;1.35;0.80;;;13.60;99.90;;;;;;5143730;27;20122;-72
2022/08/31 02:08:46;;;;;;;3.85;0.85;;;13.50;99.90;;;;;;5143206;27;20037;-72
2022/08/31 02:11:15;;;;;;;2.38;1.00;;;13.50;99.90;;;;;;5127416;27;20498;-72
2022/08/31 02:13:41;;;;;;;1.92;1.02;;;13.40;99.90;;;;;;5126542;27;20035;-72
2022/08/31 02:16:06;;;;;;;2.10;0.90;;;13.40;99.90;;;;;;5126721;27;20521;-72
2022/08/31 02:18:34;;;;;;;2.00;0.95;;;13.40;99.90;;;;;;5142989;27;20479;-72
2022/08/31 02:21:00;;;;;;;1.20;0.80;;;13.30;99.90;;;;;;5145848;27;20039;-72
2022/08/31 02:23:25;;;;;;;2.08;0.75;;;13.30;99.90;;;;;;5125165;27;20483;-72
2022/08/31 02:25:51;;;;;;;2.78;0.95;;;13.30;99.90;;;;;;5146477;27;20179;-72
2022/08/31 02:28:17;;;;;;;2.15;0.90;;;13.20;99.90;;;;;;5121406;27;20050;-72
2022/08/31 02:30:45;;;;;;;1.67;0.90;;;13.20;99.90;;;;;;5146034;27;20081;-71
2022/08/31 02:33:10;;;;;;;4.03;0.80;;;13.20;99.90;;;;;;5138827;27;20100;-72
2022/08/31 02:35:37;;;;;;;;;;;13.10;99.90;;;;;;5127617;27;20035;-72
2022/08/31 02:38:04;;;;;;;1.70;0.87;;;13.10;99.90;;;;;;5125750;27;19983;-72
2022/08/31 02:40:30;;;;;;;1.83;0.90;;;13.10;99.90;;;;;;5144261;27;20051;-72
2022/08/31 02:42:55;;;;;;;;;;;13.10;99.90;;;;;;5145570;27;20062;-72
2022/08/31 02:45:22;;;;;;;1.38;0.70;;;13.00;99.90;;;;;;5124806;27;20014;-71
2022/08/31 02:47:48;;;;;;;1.88;0.80;;;13.00;99.90;;;;;;5124638;27;20039;-72
2022/08/31 02:50:13;;;;;;;;;;;13.00;99.90;;;;;;5143220;27;20043;-71
2022/08/31 02:52:49;;;;;;;3.15;1.00;;;12.90;99.90;;;;;;5126548;27;19919;-72
2022/08/31 02:55:16;;;;;;;4.27;0.90;;;12.90;99.90;;;;;;5120925;27;20078;-72
2022/08/31 02:57:42;;;;;;;1.90;0.90;;;12.90;99.90;;;;;;5137585;27;20510;-71
2022/08/31 03:00:08;;;;;;;;;;;12.80;99.90;;;;;;5127591;27;20128;-72
2022/08/31 03:02:34;;;;;;;1.97;1.03;;;12.80;99.90;;;;;;5126334;27;19927;-72
2022/08/31 03:05:06;;;;;;;1.17;0.80;;;12.80;99.90;;;;;;5122931;27;20501;-71
2022/08/31 03:07:33;;;;;;;1.42;0.82;;;12.80;99.90;;;;;;5126429;27;20075;-71
2022/08/31 03:10:00;;;;;;;2.10;0.90;;;12.80;99.90;;;;;;5143506;27;20043;-72
2022/08/31 03:12:26;;;;;;;2.10;0.80;;;12.70;99.90;;;;;;5124545;27;20051;-71
2022/08/31 03:14:51;;;;;;;;;;;12.70;99.90;;;;;;5146248;27;20375;-72
2022/08/31 03:17:17;;;;;;;2.72;0.70;;;12.70;99.90;;;;;;5144737;27;19980;-72
2022/08/31 03:19:42;;;;;;;;;;;12.80;99.90;;;;;;5119591;27;20130;-71
2022/08/31 03:22:08;;;;;;;1.67;0.70;;;12.60;99.90;;;;;;5142648;27;19919;-72
2022/08/31 03:24:33;;;;;;;1.98;0.90;;;12.70;99.90;;;;;;5140228;27;20521;-72
2022/08/31 03:26:59;;;;;;;2.13;0.90;;;12.60;99.90;;;;;;5142157;27;20053;-72
2022/08/31 03:29:25;;;;;;;1.60;0.90;;;12.60;99.90;;;;;;5144840;27;20107;-71
2022/08/31 03:31:51;;;;;;;2.05;0.80;;;12.50;99.90;;;;;;5144262;27;20488;-72
2022/08/31 03:34:16;;;;;;;3.22;0.90;;;12.60;99.90;;;;;;5141291;27;20038;-72
2022/08/31 03:36:42;;;;;;;;;;;12.50;99.90;;;;;;5126904;27;20035;-71
2022/08/31 03:39:08;;;;;;;1.90;0.82;;;12.50;99.90;;;;;;5145656;27;20302;-71
2022/08/31 03:41:36;;;;;;;1.98;0.93;;;12.50;99.90;;;;;;5141225;27;20127;-72
2022/08/31 03:44:04;;;;;;;2.40;0.90;;;12.50;99.90;;;;;;5144831;27;20497;-72
2022/08/31 03:46:31;;;;;;;1.60;0.88;;;12.50;99.90;;;;;;5141323;27;20474;-72
2022/08/31 03:49:01;;;;;;;1.65;0.80;;;12.50;99.90;;;;;;5138967;27;20432;-71
2022/08/31 03:51:27;;;;;;;1.73;1.00;;;12.50;99.90;;;;;;5142130;27;20130;-71
2022/08/31 03:53:56;;;;;;;1.52;0.90;;;12.50;99.90;;;;;;5124836;27;20081;-69
2022/08/31 03:56:21;;;;;;;1.80;0.90;;;12.50;99.90;;;;;;5124786;27;20050;-70
2022/08/31 03:58:47;;;;;;;;;;;12.50;99.90;;;;;;5125262;27;20390;-70
2022/08/31 04:01:13;;;;;;;2.05;0.90;;;12.50;99.90;;;;;;5143079;27;20482;-70
2022/08/31 04:03:42;;;;;;;1.60;0.80;;;12.60;99.90;;;;;;5141121;27;20053;-70
2022/08/31 04:06:11;;;;;;;1.25;0.63;;;12.50;99.90;;;;;;5121386;27;20079;-70
2022/08/31 04:08:37;;;;;;;2.20;1.00;;;12.50;99.90;;;;;;5124963;27;20038;-70
2022/08/31 04:11:12;;;;;;;1.45;0.80;;;12.50;99.90;;;;;;5140989;27;20056;-70
2022/08/31 04:13:39;;;;;;;1.83;0.93;;;12.50;99.90;;;;;;5120947;27;20039;-71
2022/08/31 04:16:07;;;;;;;3.42;0.90;;;12.50;99.90;;;;;;5125317;27;20038;-70
2022/08/31 04:18:35;;;;;;;2.38;1.00;;;12.50;99.90;;;;;;5136530;27;20076;-71
2022/08/31 04:21:00;;;;;;;2.03;1.00;;;12.50;99.90;;;;;;5144375;27;20062;-71
2022/08/31 04:23:28;;;;;;;;;;;12.50;99.90;;;;;;5122817;27;20079;-70
2022/08/31 04:25:56;;;;;;;2.72;1.00;;;12.40;99.90;;;;;;5143964;27;19923;-70
2022/08/31 04:28:23;;;;;;;1.90;1.00;;;12.50;99.90;;;;;;5141491;27;20506;-71
2022/08/31 04:30:51;;;;;;;1.90;1.00;;;12.40;99.90;;;;;;5142429;27;20054;-69
2022/08/31 04:33:17;;;;;;;2.20;1.00;;;12.40;99.90;;;;;;5122080;27;20071;-70
2022/08/31 04:35:42;;;;;;;;;;;12.40;99.90;;;;;;5123434;27;20059;-70
2022/08/31 04:38:09;;;;;;;4.18;1.92;;;12.40;99.90;;;;;;5122739;27;19915;-70
2022/08/31 04:40:41;;;;;;;2.92;1.33;;;12.30;99.90;;;;;;5143537;27;20115;-70
2022/08/31 04:43:07;;;;;;;2.92;1.42;;;12.40;99.90;;;;;;5123288;27;20043;-68
2022/08/31 04:45:33;;;;;;;;;;;12.70;99.90;;;;;;5125188;27;20171;-70
2022/08/31 04:47:58;;;;;;;1.58;0.90;;;12.40;99.90;;;;;;5119835;27;20407;-71
2022/08/31 04:50:24;;;;;;;;;;;12.40;99.90;;;;;;5121768;28;20051;-68
2022/08/31 04:52:49;;;;;;;3.63;1.30;;;12.40;99.90;;;;;;5125704;27;20348;-70
2022/08/31 04:55:21;;;;;;;2.28;1.20;;;12.40;99.90;;;;;;5122435;28;20049;-75
2022/08/31 04:57:47;;;;;;;;;;;12.40;99.90;;;;;;5147312;27;20121;-77
2022/08/31 05:00:13;;;;;;;2.28;1.30;;;12.40;99.90;;;;;;5145570;27;19918;-75
2022/08/31 05:02:39;;;;;;;2.33;1.13;;;12.40;99.90;;;;;;5145629;27;20082;-74
2022/08/31 05:05:05;;;;;;;;;;;12.40;99.90;;;;;;5127453;27;20067;-73
2022/08/31 05:07:30;;;;;;;3.75;1.10;;;12.40;99.90;;;;;;5123168;27;20041;-73
2022/08/31 05:09:56;;;;;;;;;;;12.40;99.90;;;;;;5148845;27;20121;-76
2022/08/31 05:12:22;;;;;;;2.75;1.20;;;12.40;99.90;;;;;;5129525;27;19919;-76
2022/08/31 05:14:47;;;;;;;3.35;1.20;;;12.50;99.90;;;;;;5145359;27;20047;-74
2022/08/31 05:17:15;;;;;;;;;;;12.50;99.90;;;;;;5129510;27;20048;-73
2022/08/31 05:19:41;;;;;;;2.47;1.23;;;12.50;99.90;;;;;;5126756;27;19919;-70
2022/08/31 05:22:08;;;;;;;2.55;1.30;;;12.50;99.90;;;;;;5142585;27;20134;-73
2022/08/31 05:24:36;;;;;;;3.50;1.40;;;12.50;99.90;;;;;;5127402;27;20126;-69
2022/08/31 05:27:02;;;;;;;3.38;1.98;;;12.60;99.90;;;;;;5143677;27;20043;-72
2022/08/31 05:29:27;;;;;;;;;;;12.60;99.90;;;;;;5128054;27;20038;-72
2022/08/31 05:31:55;;;;;;;2.85;1.30;;;12.60;99.90;;;;;;5144670;27;19920;-70
2022/08/31 05:34:22;;;;;;;2.45;1.30;;;12.60;99.90;;;;;;5132307;27;20378;-70
2022/08/31 05:36:51;;;;;;;2.75;1.30;;;12.60;99.90;;;;;;5120928;27;20039;-72
2022/08/31 05:39:17;;;;;;;2.67;1.20;;;12.70;99.90;;;;;;5122253;27;20058;-72
2022/08/31 05:41:43;;;;;;;;;;;12.80;99.90;;;;;;5128652;27;20043;-71
2022/08/31 05:44:10;;;;;;;2.80;1.45;;;12.80;99.90;;;;;;5124992;27;20474;-74
2022/08/31 05:46:35;;;;;;;5.78;1.42;;;12.80;99.90;;;;;;5126292;27;20031;-71
2022/08/31 05:49:01;;;;;;;;;;;12.90;99.90;;;;;;5145599;27;20488;-70
2022/08/31 05:51:27;;;;;;;4.15;1.30;;;13.00;99.90;;;;;;5126382;27;19916;-71
2022/08/31 05:53:53;;;;;;;;;;;13.00;99.90;;;;;;5127082;27;20041;-71
2022/08/31 05:56:25;;;;;;;3.67;1.30;;;13.00;99.90;;;;;;5125285;27;20286;-71
2022/08/31 05:58:51;;;;;;;3.90;1.42;;;13.10;99.90;;;;;;5128265;27;20050;-72
2022/08/31 06:01:24;;;;;;;2.92;1.30;;;13.20;99.90;;;;;;5124603;27;20053;-72
2022/08/31 06:03:52;;;;;;;3.22;1.05;;;13.20;99.90;;;;;;5128267;27;20039;-71
2022/08/31 06:06:18;;;;;;;2.28;1.27;;;13.30;99.90;;;;;;5146679;27;20053;-71
2022/08/31 06:08:44;;;;;;;;;;;13.30;99.90;;;;;;5124511;27;20042;-70
2022/08/31 06:11:17;;;;;;;2.78;1.20;;;13.40;99.90;;;;;;5124699;27;19980;-71
2022/08/31 06:13:43;;;;;;;2.38;1.30;;;13.40;99.90;;;;;;5140665;27;20062;-70
2022/08/31 06:16:09;;;;;;;3.05;1.30;;;13.40;99.90;;;;;;5127717;27;20077;-71
2022/08/31 06:18:37;;;;;;;;;;;13.50;99.90;;;;;;5140533;27;20063;-71
2022/08/31 06:21:08;;;;;;;2.58;1.42;;;13.60;99.90;;;;;;5145989;27;19926;-70
2022/08/31 06:23:38;;;;;;;2.42;1.05;;;13.70;99.90;;;;;;5143283;27;20572;-71
2022/08/31 06:26:11;;;;;;;4.70;1.67;;;13.70;99.90;;;;;;5127716;27;20051;-70
2022/08/31 06:28:45;;;;;;;2.80;1.55;;;13.80;99.90;;;;;;5121663;27;20051;-71
2022/08/31 06:31:22;;;;;;;3.38;1.30;;;13.90;99.90;;;;;;5116614;27;20099;-72
2022/08/31 06:33:48;;;;;;;2.67;1.35;;;14.00;99.90;;;;;;5120747;27;20043;-71
2022/08/31 06:36:17;;;;;;;3.75;1.40;;;14.10;99.90;;;;;;5141675;27;20051;-72
2022/08/31 06:38:43;;;;;;;2.35;1.40;;;14.10;99.90;;;;;;5146521;27;20601;-70
2022/08/31 06:41:21;;;;;;;2.95;1.42;;;14.20;99.90;;;;;;5143049;27;20122;-73
2022/08/31 06:43:47;;;;;;;2.70;1.17;;;14.30;99.90;;;;;;5122858;27;20043;-71
2022/08/31 06:46:14;;;;;;;2.83;1.50;;;14.40;99.90;;;;;;5145531;27;20069;-74
2022/08/31 06:48:40;;;;;;;2.35;1.35;;;14.50;99.90;;;;;;5124109;27;20364;-73
2022/08/31 06:51:10;;;;;;;3.92;1.33;;;14.60;99.90;;;;;;5127058;27;20122;-77
2022/08/31 06:53:42;;;;;;;2.22;1.38;;;14.80;99.90;;;;;;5121220;27;20130;-71
2022/08/31 06:56:13;;;;;;;3.45;1.33;;;14.90;99.90;;;;;;5142126;27;20074;-71
2022/08/31 06:58:46;;;;;;;2.83;1.30;;;15.00;99.90;;;;;;5124172;27;20111;-72
2022/08/31 07:01:19;;;;;;;4.72;1.40;;;15.20;99.90;;;;;;5143546;27;20538;-70
2022/08/31 07:03:51;;;;;;;3.50;1.40;;;15.30;99.90;;;;;;5143006;27;20058;-70
2022/08/31 07:06:30;;;;;;;4.18;1.50;;;15.30;99.90;;;;;;5142799;27;20047;-69
2022/08/31 07:08:59;;;;;;;5.05;1.48;;;15.50;99.90;;;;;;5146340;27;20038;-71
2022/08/31 07:11:37;;;;;;;4.35;1.30;;;15.60;99.90;;;;;;5125127;27;20043;-72
2022/08/31 07:14:04;;;;;;;3.33;1.40;;;15.70;99.90;;;;;;5119997;27;20102;-71
2022/08/31 07:16:33;;;;;;;3.05;1.40;;;15.90;99.90;;;;;;5137827;27;20083;-72
2022/08/31 07:19:05;;;;;;;2.92;1.20;;;16.50;99.90;;;;;;5137443;27;20043;-73
2022/08/31 07:21:34;;;;;;;2.30;1.20;;;17.90;99.90;;;;;;5143908;27;20043;-77
2022/08/31 07:24:01;;;;;;;4.38;1.40;;;19.30;99.90;;;;;;5126113;27;20043;-72
2022/08/31 07:26:31;;;;;;;1.73;1.05;;;20.70;99.90;;;;;;5115883;27;20506;-73
2022/08/31 07:29:05;;;;;;;2.33;1.15;;;21.80;99.90;;;;;;5115754;27;20035;-76
2022/08/31 07:31:47;;;;;;;3.58;1.10;;;22.70;98.10;;;;;;5114667;27;20118;-75
2022/08/31 07:34:19;;;;;;;3.22;1.00;;;23.50;95.50;;;;;;5121870;27;20047;-80
2022/08/31 07:42:21;;;;;;;3.50;1.08;;;25.70;93.00;;;;;;5125346;27;20047;-78
2022/08/31 07:45:06;;;;;;;3.42;1.02;;;26.00;92.00;;;;;;5122432;27;20031;-75
2022/08/31 07:47:45;;;;;;;2.97;0.95;;;26.40;91.60;;;;;;5121966;27;20039;-74
2022/08/31 07:50:13;;;;;;;2.28;0.90;;;26.70;91.30;;;;;;5124301;27;20046;-77
2022/08/31 07:52:46;;;;;;;2.55;1.00;;;27.10;90.70;;;;;;5126731;27;20051;-76
2022/08/31 07:55:14;;;;;;;2.38;0.80;;;27.60;90.90;;;;;;5121399;27;20043;-77
2022/08/31 07:57:44;;;;;;;1.90;0.90;;;27.60;90.10;;;;;;5122930;27;20036;-77
2022/08/31 08:00:18;;;;;;;2.17;0.98;;;27.80;89.40;;;;;;5119578;27;20260;-77
2022/08/31 08:02:47;;;;;;;2.88;0.88;;;28.10;87.80;;;;;;5121202;27;20398;-76
2022/08/31 08:05:22;;;;;;;1.73;0.90;;;28.40;88.50;;;;;;5119834;27;20479;-73
2022/08/31 08:07:51;;;;;;;2.13;0.90;;;28.60;86.90;;;;;;5113786;27;20093;-74
2022/08/31 08:10:23;;;;;;;4.03;1.00;;;28.60;84.90;;;;;;5121212;27;20300;-72
2022/08/31 08:12:57;;;;;;;2.22;0.93;;;28.70;83.90;;;;;;5118760;27;20089;-72
2022/08/31 08:15:23;;;;;;;2.28;0.80;;;28.50;83.00;;;;;;5119097;27;20067;-72
2022/08/31 08:17:49;;;;;;;2.13;1.42;;;28.70;83.40;;;;;;5116404;27;20382;-78
2022/08/31 08:20:15;;;;;;;1.50;0.63;;;28.90;82.50;;;;;;5120551;27;20538;-74
2022/08/31 08:22:42;;;;;;;3.92;1.00;;;29.00;82.00;;;;;;5112987;27;20116;-73
2022/08/31 08:25:08;;;;;;;1.80;0.80;;;28.60;82.00;;;;;;5121168;27;20059;-73
2022/08/31 08:27:35;;;;;;;3.13;0.93;;;28.40;82.20;;;;;;5120773;27;20047;-73
2022/08/31 08:30:01;;;;;;;2.97;0.80;;;28.20;81.10;;;;;;5119508;27;20047;-73
2022/08/31 08:32:30;;;;;;;1.77;0.73;;;28.10;81.90;;;;;;5122633;27;20064;-72
2022/08/31 08:34:56;;;;;;;1.73;0.90;;;27.40;80.50;;;;;;5116700;27;20131;-73
2022/08/31 08:37:22;;;;;;;2.25;1.00;;;27.10;82.60;;;;;;5123338;27;20047;-73
2022/08/31 08:39:48;;;;;;;3.22;0.68;;;26.90;81.90;;;;;;5120812;28;20073;-73
2022/08/31 08:42:15;;;;;;;1.75;0.70;;;26.40;83.50;;;;;;5122532;28;20043;-73
2022/08/31 08:44:42;;;;;;;1.63;0.70;;;26.70;84.40;;;;;;5119161;27;20487;-73
2022/08/31 08:47:21;;;;;;;4.20;0.70;;;27.30;82.70;;;;;;5121291;27;21465;-73
2022/08/31 08:49:52;;;;;;;2.78;0.77;;;28.10;81.50;;;;;;5115303;28;20052;-73
2022/08/31 08:52:27;;;;;;;1.40;0.60;;;27.90;81.50;;;;;;5117237;28;20047;-73
2022/08/31 08:54:55;;;;;;;1.48;0.70;;;27.30;80.70;;;;;;5121657;28;20039;-73
2022/08/31 08:57:27;;;;;;;1.42;0.70;;;26.90;81.80;;;;;;5120443;28;20063;-73
2022/08/31 08:59:56;;;;;;;2.63;0.70;;;27.10;82.60;;;;;;5121027;28;20047;-73
2022/08/31 09:02:33;;;;;;;1.30;0.70;;;27.30;82.30;;;;;;5121491;28;20048;-73
2022/08/31 09:05:07;;;;;;;3.08;0.73;;;27.90;79.40;;;;;;5120852;27;20147;-74
2022/08/31 09:07:45;;;;;;;1.90;0.80;;;28.60;80.10;;;;;;5121523;28;20104;-74
2022/08/31 09:10:26;;;;;;;2.05;0.80;;;28.90;79.50;;;;;;5115055;28;20036;-74
2022/08/31 09:13:16;;;;;;;2.80;0.52;;;28.20;78.80;;;;;;5117451;28;20875;-74
2022/08/31 09:15:54;;;;;;;1.05;0.55;;;27.00;79.30;;;;;;5114744;28;20106;-74
2022/08/31 09:18:42;;;;;;;1.73;0.82;;;26.30;80.30;;;;;;5116961;28;20137;-74
2022/08/31 09:21:29;;;;;;;3.22;0.88;;;26.00;82.20;;;;;;5114839;28;20051;-73
2022/08/31 09:24:01;;;;;;;2.35;0.90;;;26.20;82.40;;;;;;5120224;28;20039;-74
2022/08/31 09:26:57;;;;;;;1.13;0.70;;;25.80;81.70;;;;;;5119364;28;20048;-73
2022/08/31 09:29:27;;;;;;;2.42;0.77;;;26.00;80.40;;;;;;5118883;28;20039;-73
2022/08/31 09:32:08;;;;;;;2.60;0.70;;;26.50;81.70;;;;;;5120461;27;20043;-74
2022/08/31 09:34:42;;;;;;;1.13;0.60;;;26.80;79.10;;;;;;5122424;28;20126;-74
2022/08/31 09:37:21;;;;;;;1.40;0.60;;;27.30;78.70;;;;;;5116270;28;20525;-73
2022/08/31 09:39:52;;;;;;;1.65;0.70;;;27.80;78.30;;;;;;5118961;28;20052;-74
2022/08/31 09:42:32;;;;;;;1.95;0.70;;;28.70;79.20;;;;;;5122546;27;20135;-73
2022/08/31 09:45:11;;;;;;;1.90;0.80;;;29.00;75.40;;;;;;5124726;27;20144;-74
2022/08/31 09:47:54;;;;;;;1.65;0.70;;;29.20;76.70;;;;;;5122004;27;20050;-74
2022/08/31 09:50:46;;;;;;;2.13;0.77;;;29.30;74.70;;;;;;5122409;27;20122;-74
2022/08/31 09:56:14;;;;;;;5.65;1.13;;;28.50;74.80;;;;;;5123428;27;20067;-73
2022/08/31 09:59:01;;;;;;;2.08;0.70;;;28.50;75.00;;;;;;5119569;27;20043;-74
2022/08/31 10:01:39;;;;;;;1.60;0.65;;;29.30;77.30;;;;;;5122551;27;20043;-74
2022/08/31 10:04:18;;;;;;;3.35;0.70;;;29.60;75.40;;;;;;5119695;27;20050;-74
2022/08/31 10:07:06;;;;;;;2.85;0.80;;;30.00;76.30;;;;;;5120566;27;20120;-74
2022/08/31 10:09:45;;;;;;;1.48;0.70;;;29.90;76.40;;;;;;5118890;27;20118;-74
2022/08/31 10:12:38;;;;;;;1.95;0.50;;;30.20;75.80;;;;;;5124340;27;20073;-74
2022/08/31 10:15:25;;;;;;;1.60;0.80;;;30.30;74.10;;;;;;5118253;27;20039;-73
2022/08/31 10:18:10;;;;;;;2.30;0.50;;;30.10;74.20;;;;;;5123466;27;20282;-73
2022/08/31 10:20:41;;;;;;;2.30;0.60;;;29.50;72.40;;;;;;5123614;27;20059;-74
2022/08/31 10:23:53;;;;;;;1.00;0.55;;;29.80;73.80;;;;;;5124836;27;20486;-73
2022/08/31 10:26:45;;;;;;;1.50;0.70;;;29.80;72.80;;;;;;5140744;27;20124;-74
2022/08/31 10:29:39;;;;;;;3.15;0.70;;;28.90;73.00;;;;;;5122998;27;20058;-73
2022/08/31 10:32:22;;;;;;;2.38;1.27;;;29.20;74.00;;;;;;5123114;27;20080;-74
2022/08/31 10:35:04;;;;;;;1.33;0.70;;;29.70;75.20;;;;;;5146189;27;20043;-73
2022/08/31 10:37:51;;;;;;;1.48;0.60;;;29.80;72.30;;;;;;5121787;27;20031;-74
2022/08/31 10:40:31;;;;;;;1.52;0.60;;;30.20;72.90;;;;;;5126934;27;20080;-74
2022/08/31 10:43:16;;;;;;;1.42;0.60;;;30.40;72.30;;;;;;5119881;27;20046;-75
2022/08/31 10:45:46;;;;;;;2.47;0.70;;;30.40;70.20;;;;;;5141274;27;20043;-75
2022/08/31 10:48:12;;;;;;;1.33;0.57;;;30.60;72.00;;;;;;5144963;27;20052;-74
2022/08/31 10:51:04;;;;;;;1.65;0.60;;;30.60;72.20;;;;;;5125253;27;20050;-70
2022/08/31 10:54:26;;;;;;;1.77;0.70;;;30.60;70.80;;;;;;5122333;27;20099;-71
2022/08/31 10:57:28;;;;;;;1.40;0.60;;;30.40;72.30;;;;;;5145755;27;20038;-69
2022/08/31 11:00:40;;;;;;;2.55;0.80;;;30.10;72.50;;;;;;5092723;27;20051;-69
2022/08/31 11:03:11;;;;;;;1.98;0.80;;;28.70;73.10;;;;;;5120438;27;20047;-68
2022/08/31 11:05:46;;;;;;;1.08;0.50;;;28.20;74.90;;;;;;5126298;27;20512;-69
2022/08/31 11:08:48;;;;;;;1.13;0.50;;;27.50;75.30;;;;;;5126384;27;20050;-69
2022/08/31 11:11:34;;;;;;;1.42;0.70;;;27.80;77.40;;;;;;5125069;27;20184;-70
2022/08/31 11:14:31;;;;;;;1.88;0.77;;;28.40;77.30;;;;;;5122491;27;20398;-74
2022/08/31 11:17:11;;;;;;;;;;;28.20;76.30;;;;;;5124895;27;20035;-70
2022/08/31 11:20:21;;;;;;;2.47;0.80;;;28.80;76.10;;;;;;5143991;27;19919;-70
2022/08/31 11:23:16;;;;;;;1.20;0.68;;;29.30;75.70;;;;;;5127212;27;20481;-70
2022/08/31 11:26:09;;;;;;;1.80;0.60;;;29.50;74.50;;;;;;5109565;27;20062;-68
2022/08/31 11:28:41;;;;;;;2.20;0.80;;;29.50;75.40;;;;;;5121743;27;20047;-74
2022/08/31 11:31:16;;;;;;;1.23;0.70;;;29.80;77.00;;;;;;5119397;27;20047;-69
2022/08/31 11:33:49;;;;;;;2.47;1.00;;;30.10;75.80;;;;;;5146692;27;20047;-70
2022/08/31 11:36:48;;;;;;;1.23;0.70;;;29.80;74.80;;;;;;5117678;27;20038;-74
2022/08/31 11:39:25;;;;;;;1.83;0.80;;;29.30;73.50;;;;;;5142702;27;20035;-72
2022/08/31 11:41:55;;;;;;;2.83;1.00;;;29.60;74.60;;;;;;5138475;27;20051;-73
2022/08/31 11:44:38;;;;;;;1.73;0.80;;;29.50;75.00;;;;;;5144529;27;20044;-71
2022/08/31 11:47:29;;;;;;;1.40;0.68;;;29.80;73.90;;;;;;5119602;27;20486;-74
2022/08/31 11:50:04;;;;;;;1.55;0.70;;;29.30;74.80;;;;;;5121438;27;20402;-73
2022/08/31 11:52:41;;;;;;;2.40;0.80;;;29.60;74.70;;;;;;5125717;27;20444;-75
2022/08/31 11:55:19;;;;;;;1.83;0.73;;;29.90;76.20;;;;;;5124015;27;20054;-77
2022/08/31 11:58:14;;;;;;;1.80;0.80;;;29.80;74.40;;;;;;5119938;27;20131;-80
2022/08/31 12:01:01;;;;;;;1.30;0.65;;;30.10;74.90;;;;;;5138287;27;20035;-82
2022/08/31 12:03:50;;;;;;;2.35;0.70;;;30.20;72.70;;;;;;5123040;27;20043;-80
2022/08/31 12:06:26;;;;;;;3.75;0.70;;;29.80;73.00;;;;;;5136791;27;20039;-77
2022/08/31 12:09:08;;;;;;;1.75;0.60;;;30.00;75.70;;;;;;5144180;27;20043;-77
2022/08/31 12:11:40;;;;;;;1.10;0.68;;;30.00;74.20;;;;;;5126756;27;20394;-76
2022/08/31 12:14:28;;;;;;;1.65;0.68;;;30.00;73.60;;;;;;5140493;27;20054;-80
2022/08/31 12:17:20;;;;;;;1.38;0.60;;;30.20;74.70;;;;;;5120125;27;20081;-76
2022/08/31 12:19:57;;;;;;;3.33;0.88;;;30.30;74.80;;;;;;5122011;27;20121;-79
2022/08/31 12:25:53;;;;;;;1.33;0.63;;;30.20;73.00;;;;;;5144257;27;20046;-77
2022/08/31 12:28:43;;;;;;;0.98;0.60;;;30.10;73.10;;;;;;5120932;27;20567;-74
2022/08/31 12:31:14;;;;;;;2.33;0.95;;;30.00;73.60;;;;;;5118770;27;20035;-75
2022/08/31 12:33:55;;;;;;;1.67;0.70;;;29.80;74.60;;;;;;5119473;27;20043;-75
2022/08/31 12:36:27;;;;;;;2.00;0.70;;;29.60;75.20;;;;;;5121400;27;20501;-75
2022/08/31 12:39:22;;;;;;;2.25;0.75;;;29.60;74.10;;;;;;5124655;27;20126;-75
2022/08/31 12:42:01;;;;;;;5.03;0.85;;;29.60;75.00;;;;;;5121086;27;20074;-75
2022/08/31 12:44:32;;;;;;;1.95;0.80;;;29.50;75.50;;;;;;5123962;27;20081;-75
2022/08/31 12:47:04;;;;;;;1.67;0.73;;;29.50;74.90;;;;;;5122324;27;20058;-75
2022/08/31 12:49:50;;;;;;;2.42;0.60;;;28.60;74.30;;;;;;5121442;27;20050;-76
2022/08/31 12:52:45;;;;;;;2.20;0.75;;;28.30;76.70;;;;;;5121743;27;20129;-76
2022/08/31 12:55:54;;;;;;;4.03;0.93;;;28.20;76.80;;;;;;5131869;27;20039;-79
2022/08/31 12:58:46;;;;;;;2.50;0.90;;;28.20;77.50;;;;;;5140031;27;20092;-74
2022/08/31 13:01:19;;;;;;;3.13;0.70;;;28.00;76.30;;;;;;5138793;27;20101;-71
2022/08/31 13:03:49;;;;;;;1.48;0.70;;;27.70;76.90;;;;;;5142991;27;20047;-75
2022/08/31 13:06:25;;;;;;;2.00;0.70;;;27.40;77.70;;;;;;5132337;27;20042;-76
2022/08/31 13:08:55;;;;;;;3.10;0.88;;;27.20;77.50;;;;;;5123287;27;20045;-74
2022/08/31 13:11:29;;;;;;;2.47;0.80;;;27.10;77.60;;;;;;5142667;27;20540;-74
2022/08/31 13:14:19;;;;;;;2.28;0.80;;;27.00;77.90;;;;;;5118599;27;20490;-80
2022/08/31 13:16:55;;;;;;;1.38;0.70;;;26.80;78.40;;;;;;5139688;27;20031;-80
2022/08/31 13:19:25;;;;;;;;;;;26.70;78.70;;;;;;5148051;27;20051;-71
2022/08/31 13:22:07;;;;;;;4.85;0.75;;;26.70;79.30;;;;;;5145040;27;20009;-77
2022/08/31 13:24:43;;;;;;;2.92;0.85;;;26.60;79.30;;;;;;5124204;27;20179;-73
2022/08/31 13:27:10;;;;;;;2.20;0.90;;;26.40;79.10;;;;;;5124825;27;20577;-73
2022/08/31 13:29:43;;;;;;;4.65;0.93;;;26.20;81.40;;;;;;5129313;27;20064;-74
2022/08/31 13:32:09;;;;;;;2.40;0.85;;;26.00;79.70;;;;;;5140741;27;20056;-75
2022/08/31 13:34:40;;;;;;;4.55;1.25;;;26.00;80.40;;;;;;5147975;27;20035;-73
2022/08/31 13:37:19;;;;;;;2.08;0.80;;;26.00;80.20;;;;;;5138786;27;20047;-78